Terminal Aerodrome Forecast
Issued by NWS Sterling, VA

Home | Current Version | Previous Version | Text Only | Print | Product List | Glossary On
Versions: 1 2 3 4 5 6 7 8 9 10 11 12 13 14 15 16 17 18 19 20 21 22 23
000
FTUS41 KLWX 251428 AAB
TAFBWI
TAF AMD
KBWI 251428Z 2514/2618 28005KT P6SM SCT060 BKN090 OVC150
     FM252000 24005KT P6SM -RA OVC090
     FM260300 24006KT 6SM -RA OVC030
     FM260500 26005KT 6SM -RA OVC008
     FM260700 28004KT 6SM -RA OVC025
     FM260800 30004KT 6SM -RA OVC040
     FM261000 32004KT P6SM OVC050
     FM261400 03004KT P6SM BKN050=

USA.gov is the U.S. government's official web portal to all federal, state and local government web resources and services.